»·PEaware :: N973BB KNOW-KOTH

N973BB :: KNOW-KOTH

FLIGHT INFORMATION

Flight Status: Arrived
Operator: Privately registered:
United States
More flights under this callsign
Pilot: Phil H. (1072)
Aircraft: MITSUBISHI MU-2 MARQUISE
(MU2)
More flights by this aircraft type
Origin: KNOW Port Angeles Cgas
United States
Destination: KOTH North Bend Mun
United States
More flights between these airports :: More routes between these airports
Route: DIRECT GPS
File this flight plan on PilotEdge
Remarks:
Altitude:
(Current/Filed)
11,500ft
Speed:
(Current/Filed)
250kts
Departed: 08-Jan-18 08:14 AM
Arrived: 08-Jan-18 09:24 AM
Distance/Time
Traveled:
286nm/1:10
Distance/Time
To Go:
Arrived

Flight Plot

Page will automatically refresh every two minutes.

Flight plan parsing failed; only flown route is shown


Map Options




Map Legend


Flown Route
Filed Route
Departure Airport
Arrival Airport
Navaid (VOR, NDB)
Fix

Horizontal Profiles

Position Reports

Time Latitude Longitude Heading Altitude Ground
Speed
08-Jan-18 08:08 48.140322 -123.407278 275 4ft 0kts
08-Jan-18 08:09 48.140322 -123.407278 275 4ft 0kts
08-Jan-18 08:10 48.140322 -123.407279 274 4ft 0kts
08-Jan-18 08:11 48.140322 -123.407279 274 4ft 0kts
08-Jan-18 08:12 48.140322 -123.407279 274 4ft 0kts
08-Jan-18 08:13 48.140322 -123.407279 274 4ft 0kts
08-Jan-18 08:14 48.140322 -123.407279 274 4ft 0kts
08-Jan-18 08:15 48.140322 -123.407279 274 4ft 0kts
08-Jan-18 08:16 48.140322 -123.407279 274 4ft 0kts
08-Jan-18 08:17 48.140322 -123.407279 274 4ft 0kts
08-Jan-18 08:18 48.140383 -123.407749 247 4ft 2kts
08-Jan-18 08:19 48.141050 -123.408323 275 4ft 0kts
08-Jan-18 08:20 48.141261 -123.450488 261 200ft 157kts
08-Jan-18 08:21 48.147582 -123.523063 278 2368ft 184kts
08-Jan-18 08:22 48.152127 -123.599236 276 4667ft 183kts
08-Jan-18 08:23 48.156176 -123.672756 275 6878ft 177kts
08-Jan-18 08:24 48.139069 -123.726541 179 9008ft 187kts
08-Jan-18 08:25 48.088818 -123.713858 174 11230ft 180kts
08-Jan-18 08:26 48.030482 -123.700419 174 11510ft 245kts
08-Jan-18 08:27 47.960011 -123.685327 174 11503ft 271kts
08-Jan-18 08:28 47.886052 -123.669743 174 11507ft 278kts
08-Jan-18 08:29 47.810676 -123.653911 174 11505ft 282kts
08-Jan-18 08:30 47.733653 -123.648477 196 11522ft 277kts
08-Jan-18 08:31 47.657482 -123.666156 187 11473ft 277kts
08-Jan-18 08:32 47.582333 -123.677587 187 11476ft 267kts
08-Jan-18 08:33 47.509096 -123.688382 187 11477ft 264kts
08-Jan-18 08:34 47.436728 -123.699052 187 11476ft 263kts
08-Jan-18 08:35 47.376358 -123.707924 185 11474ft 262kts
08-Jan-18 08:36 47.292045 -123.720200 185 11470ft 261kts
08-Jan-18 08:37 47.232014 -123.728940 185 11466ft 261kts
08-Jan-18 08:38 47.147711 -123.741182 186 11463ft 261kts
08-Jan-18 08:39 47.075495 -123.751635 186 11462ft 261kts
08-Jan-18 08:40 47.015451 -123.760308 185 11462ft 261kts
08-Jan-18 08:41 46.943261 -123.770707 185 11462ft 261kts
08-Jan-18 08:42 46.873088 -123.780788 185 11467ft 262kts
08-Jan-18 08:43 46.803467 -123.790766 185 11467ft 263kts
08-Jan-18 08:44 46.731125 -123.801104 185 11466ft 262kts
08-Jan-18 08:45 46.659619 -123.811299 185 11469ft 261kts
08-Jan-18 08:46 46.587452 -123.821307 188 11472ft 261kts
08-Jan-18 08:47 46.514144 -123.832073 184 11558ft 273kts
08-Jan-18 08:48 46.437440 -123.842798 185 11558ft 284kts
08-Jan-18 08:49 46.358167 -123.853958 184 11554ft 288kts
08-Jan-18 08:50 46.278280 -123.865182 185 11558ft 290kts
08-Jan-18 08:51 46.198161 -123.876430 184 11555ft 290kts
08-Jan-18 08:52 46.117761 -123.887633 184 11556ft 291kts
08-Jan-18 08:53 46.037302 -123.898859 184 11558ft 291kts
08-Jan-18 08:54 45.956937 -123.910046 184 11558ft 291kts
08-Jan-18 08:55 45.878371 -123.920904 184 11556ft 290kts
08-Jan-18 08:56 45.799136 -123.931842 185 11556ft 290kts
08-Jan-18 08:57 45.718828 -123.942918 184 11555ft 290kts
08-Jan-18 08:58 45.638371 -123.953959 184 11556ft 290kts
08-Jan-18 08:59 45.558231 -123.964913 184 11556ft 290kts
08-Jan-18 09:00 45.477882 -123.975889 185 11556ft 291kts
08-Jan-18 09:01 45.397622 -123.986820 184 11556ft 291kts
08-Jan-18 09:02 45.317306 -123.997719 184 11556ft 291kts
08-Jan-18 09:03 45.236771 -124.008616 185 11557ft 290kts
08-Jan-18 09:04 45.156511 -124.019459 184 11558ft 291kts
08-Jan-18 09:05 45.075980 -124.030318 184 11556ft 291kts
08-Jan-18 09:06 44.995575 -124.041097 184 11557ft 291kts
08-Jan-18 09:07 44.914987 -124.051875 184 11557ft 291kts
08-Jan-18 09:08 44.835773 -124.062439 184 11556ft 291kts
08-Jan-18 09:09 44.755513 -124.073128 184 11555ft 290kts
08-Jan-18 09:10 44.675082 -124.083800 184 11555ft 290kts
08-Jan-18 09:11 44.594756 -124.095226 186 11549ft 291kts
08-Jan-18 09:12 44.514147 -124.106511 185 11547ft 291kts
08-Jan-18 09:13 44.433901 -124.117103 186 11546ft 291kts
08-Jan-18 09:14 44.353588 -124.127844 183 11550ft 290kts
08-Jan-18 09:15 44.273078 -124.136797 184 11556ft 291kts
08-Jan-18 09:16 44.194338 -124.147008 184 10789ft 270kts
08-Jan-18 09:17 44.122463 -124.156350 184 9833ft 251kts
08-Jan-18 09:18 44.054541 -124.165200 184 8891ft 242kts
08-Jan-18 09:19 43.988323 -124.173779 184 7955ft 238kts
08-Jan-18 09:20 43.922591 -124.182281 184 7021ft 236kts
08-Jan-18 09:21 43.858212 -124.190588 185 6095ft 235kts
08-Jan-18 09:22 43.793608 -124.198876 183 5160ft 234kts
08-Jan-18 09:23 43.730460 -124.206998 184 4206ft 225kts
08-Jan-18 09:24 43.667470 -124.215087 184 3271ft 229kts
08-Jan-18 09:25 43.604001 -124.223149 184 2335ft 230kts
08-Jan-18 09:26 43.540165 -124.231365 184 1395ft 230kts
08-Jan-18 09:27 43.483628 -124.242914 208 1067ft 202kts
08-Jan-18 09:28 43.443546 -124.263817 157 687ft 131kts
08-Jan-18 09:29 43.415213 -124.242441 148 17ft 98kts
08-Jan-18 09:30 43.411585 -124.240198 241 15ft 0kts
08-Jan-18 09:31 43.413090 -124.242264 330 19ft 7kts
08-Jan-18 09:32 43.415212 -124.244784 324 22ft 8kts
08-Jan-18 09:33 43.415499 -124.245295 151 22ft 0kts

Navigation Log

Ident Type
Flight plan parsing failed, navigation log unavailable